Feni, Bangladesh

10:52 PM BDT on August 27, 2016 (GMT +0600)
M.A. Hannan International | | Change Station

Elev 13 ft 22.27 °N, 91.82 °E | Updated 52 minutes ago

Scattered Clouds
Scattered Clouds
84 °F
Feels Like 94 °F
N
6
Wind Variable Wind from SSW

Today
High -- | Low -- °F
--% Chance of Precip.
Yesterday
High -- | Low -- °F
Precip. -- in
Pressure 29.71 in
Visibility 3.1 miles
Clouds Few 1800 ft
Scattered Clouds 12000 ft
Heat Index 94 °F
Dew Point 77 °F
Humidity 79%
Rainfall 0.00 in
Snow Depth Not available.
5:35 AM 6:16 PM
Waning Crescent, 23% visible
METAR VGEG 271600Z 21005KT 5000 FEW018 SCT120 29/25 Q1006 NOSIG
Pressure 29.71 in
Visibility 3.1 miles
Clouds Few 1800 ft
Scattered Clouds 12000 ft
Heat Index 94 °F
Dew Point 77 °F
Humidity 79%
Rainfall 0.00 in
Snow Depth Not available.
5:35 AM 6:16 PM
Waning Crescent, 23% visible
METAR VGEG 271600Z 21005KT 5000 FEW018 SCT120 29/25 Q1006 NOSIG

10-Day Weather Forecast

No radar image for this location.
×

Almanac

Astronomy

Aug. 27, 2016 Rise Set
Actual Time
Civil Twilight
Nautical Twilight
Astronomical Twilight
Moon
Length of Visible Light
Length of Day
Tomorrow will be .
, % of the Moon is Illuminated

Today's Extremes

Country Highs Country Lows

Community

WunderPhotos

Upload Photos

1,935,377 photos uploaded!

WunderBlog® & News

Nearby

Air Quality

  Air Quality AQ Index Pollutant
Not available.

Snow Depth

Station Depth Elevation

Earthquake Activity

City Distance Mag. Time & Date
Minimum magnitude displayed is 2.5.

Coastal Water Temperatures

Place Temperature

Stations

Nearby Weather Stations

Station Location Temp. Windchill Dew Point Humidity Wind Precip. Elev Updated Type